sensor_id;sensor_type;location;lat;lon;timestamp;P1;durP1;ratioP1;P2;durP2;ratioP2
77248;SDS011;66280;45.124;20.718;2022-12-29T00:09:52;17.73;;;7.60;;
77248;SDS011;66280;45.124;20.718;2022-12-29T00:19:52;10.25;;;5.10;;
77248;SDS011;66280;45.124;20.718;2022-12-29T00:29:53;23.23;;;9.10;;
77248;SDS011;66280;45.124;20.718;2022-12-29T00:39:54;9.53;;;4.17;;
77248;SDS011;66280;45.124;20.718;2022-12-29T00:49:54;6.60;;;3.33;;
77248;SDS011;66280;45.124;20.718;2022-12-29T00:59:56;10.97;;;5.83;;
77248;SDS011;66280;45.124;20.718;2022-12-29T01:09:56;11.57;;;5.25;;
77248;SDS011;66280;45.124;20.718;2022-12-29T01:19:57;11.27;;;6.00;;
77248;SDS011;66280;45.124;20.718;2022-12-29T01:29:57;11.33;;;6.07;;
77248;SDS011;66280;45.124;20.718;2022-12-29T01:39:58;12.87;;;6.23;;
77248;SDS011;66280;45.124;20.718;2022-12-29T01:50:01;8.83;;;5.03;;
77248;SDS011;66280;45.124;20.718;2022-12-29T02:10:13;8.23;;;4.43;;
77248;SDS011;66280;45.124;20.718;2022-12-29T02:40:42;10.43;;;4.00;;
77248;SDS011;66280;45.124;20.718;2022-12-29T02:51:20;8.97;;;5.63;;
77248;SDS011;66280;45.124;20.718;2022-12-29T03:11:41;10.73;;;5.80;;
77248;SDS011;66280;45.124;20.718;2022-12-29T03:22:08;8.07;;;4.60;;
77248;SDS011;66280;45.124;20.718;2022-12-29T03:32:15;9.77;;;5.10;;
77248;SDS011;66280;45.124;20.718;2022-12-29T03:42:17;6.67;;;3.93;;
77248;SDS011;66280;45.124;20.718;2022-12-29T03:52:21;8.67;;;3.67;;
77248;SDS011;66280;45.124;20.718;2022-12-29T04:02:25;14.63;;;5.83;;
77248;SDS011;66280;45.124;20.718;2022-12-29T04:12:26;12.15;;;7.07;;
77248;SDS011;66280;45.124;20.718;2022-12-29T04:22:27;8.63;;;4.60;;
77248;SDS011;66280;45.124;20.718;2022-12-29T04:32:29;11.20;;;5.70;;
77248;SDS011;66280;45.124;20.718;2022-12-29T04:42:30;10.63;;;6.18;;
77248;SDS011;66280;45.124;20.718;2022-12-29T04:52:31;10.90;;;7.63;;
77248;SDS011;66280;45.124;20.718;2022-12-29T05:02:32;12.47;;;6.87;;
77248;SDS011;66280;45.124;20.718;2022-12-29T05:12:33;13.18;;;7.43;;
77248;SDS011;66280;45.124;20.718;2022-12-29T05:22:35;11.73;;;5.93;;
77248;SDS011;66280;45.124;20.718;2022-12-29T05:32:36;9.80;;;6.30;;
77248;SDS011;66280;45.124;20.718;2022-12-29T05:42:37;10.67;;;5.03;;
77248;SDS011;66280;45.124;20.718;2022-12-29T05:53:13;10.38;;;5.55;;
77248;SDS011;66280;45.124;20.718;2022-12-29T06:03:16;9.50;;;4.57;;
77248;SDS011;66280;45.124;20.718;2022-12-29T06:13:16;17.90;;;9.57;;
77248;SDS011;66280;45.124;20.718;2022-12-29T06:23:19;20.30;;;9.43;;
77248;SDS011;66280;45.124;20.718;2022-12-29T06:33:20;11.67;;;6.27;;
77248;SDS011;66280;45.124;20.718;2022-12-29T06:43:21;14.60;;;7.37;;
77248;SDS011;66280;45.124;20.718;2022-12-29T06:53:57;12.82;;;7.07;;
77248;SDS011;66280;45.124;20.718;2022-12-29T07:03:58;17.10;;;8.33;;
77248;SDS011;66280;45.124;20.718;2022-12-29T07:13:59;17.07;;;9.77;;
77248;SDS011;66280;45.124;20.718;2022-12-29T07:23:59;23.07;;;9.73;;
77248;SDS011;66280;45.124;20.718;2022-12-29T07:34:00;21.65;;;10.40;;
77248;SDS011;66280;45.124;20.718;2022-12-29T07:44:00;21.73;;;10.68;;
77248;SDS011;66280;45.124;20.718;2022-12-29T07:54:24;28.80;;;15.07;;
77248;SDS011;66280;45.124;20.718;2022-12-29T08:04:25;28.70;;;15.80;;
77248;SDS011;66280;45.124;20.718;2022-12-29T08:14:25;17.70;;;9.30;;
77248;SDS011;66280;45.124;20.718;2022-12-29T08:24:26;17.93;;;10.97;;
77248;SDS011;66280;45.124;20.718;2022-12-29T08:34:26;30.98;;;13.75;;
77248;SDS011;66280;45.124;20.718;2022-12-29T08:44:27;21.00;;;11.17;;
77248;SDS011;66280;45.124;20.718;2022-12-29T08:54:33;29.83;;;10.60;;
77248;SDS011;66280;45.124;20.718;2022-12-29T09:04:44;21.10;;;13.80;;
77248;SDS011;66280;45.124;20.718;2022-12-29T09:14:48;24.77;;;14.17;;
77248;SDS011;66280;45.124;20.718;2022-12-29T09:24:50;23.25;;;13.45;;
77248;SDS011;66280;45.124;20.718;2022-12-29T09:34:50;20.13;;;12.90;;
77248;SDS011;66280;45.124;20.718;2022-12-29T09:45:04;13.20;;;9.27;;
77248;SDS011;66280;45.124;20.718;2022-12-29T09:55:19;23.05;;;16.10;;
77248;SDS011;66280;45.124;20.718;2022-12-29T10:05:38;32.83;;;18.23;;
77248;SDS011;66280;45.124;20.718;2022-12-29T10:25:59;41.63;;;22.10;;
77248;SDS011;66280;45.124;20.718;2022-12-29T10:36:04;48.63;;;21.70;;
77248;SDS011;66280;45.124;20.718;2022-12-29T10:46:36;28.77;;;16.48;;
77248;SDS011;66280;45.124;20.718;2022-12-29T10:56:40;46.40;;;27.80;;
77248;SDS011;66280;45.124;20.718;2022-12-29T11:06:43;26.53;;;17.23;;
77248;SDS011;66280;45.124;20.718;2022-12-29T11:16:44;18.67;;;13.70;;
77248;SDS011;66280;45.124;20.718;2022-12-29T11:26:44;31.17;;;21.53;;
77248;SDS011;66280;45.124;20.718;2022-12-29T11:36:45;27.05;;;16.52;;
77248;SDS011;66280;45.124;20.718;2022-12-29T11:46:49;23.67;;;15.03;;
77248;SDS011;66280;45.124;20.718;2022-12-29T11:56:51;37.50;;;22.83;;
77248;SDS011;66280;45.124;20.718;2022-12-29T12:17:15;30.90;;;21.77;;
77248;SDS011;66280;45.124;20.718;2022-12-29T12:27:33;33.42;;;20.33;;
77248;SDS011;66280;45.124;20.718;2022-12-29T12:58:49;29.60;;;19.73;;
77248;SDS011;66280;45.124;20.718;2022-12-29T13:09:10;85.23;;;42.87;;
77248;SDS011;66280;45.124;20.718;2022-12-29T13:30:10;31.17;;;18.47;;
77248;SDS011;66280;45.124;20.718;2022-12-29T13:40:18;28.80;;;17.77;;
77248;SDS011;66280;45.124;20.718;2022-12-29T13:50:25;45.80;;;23.33;;
77248;SDS011;66280;45.124;20.718;2022-12-29T14:00:28;47.27;;;23.43;;
77248;SDS011;66280;45.124;20.718;2022-12-29T14:10:38;39.80;;;21.38;;
77248;SDS011;66280;45.124;20.718;2022-12-29T14:20:50;78.73;;;38.47;;
77248;SDS011;66280;45.124;20.718;2022-12-29T14:41:26;43.70;;;22.23;;
77248;SDS011;66280;45.124;20.718;2022-12-29T14:51:34;49.00;;;24.50;;
77248;SDS011;66280;45.124;20.718;2022-12-29T15:21:39;63.17;;;32.67;;
77248;SDS011;66280;45.124;20.718;2022-12-29T15:31:51;55.37;;;24.80;;
77248;SDS011;66280;45.124;20.718;2022-12-29T15:42:09;49.97;;;23.43;;
77248;SDS011;66280;45.124;20.718;2022-12-29T15:52:35;69.00;;;23.53;;
77248;SDS011;66280;45.124;20.718;2022-12-29T16:02:40;45.92;;;20.88;;
77248;SDS011;66280;45.124;20.718;2022-12-29T16:12:41;51.93;;;22.93;;
77248;SDS011;66280;45.124;20.718;2022-12-29T16:22:42;65.35;;;25.15;;
77248;SDS011;66280;45.124;20.718;2022-12-29T16:32:48;45.87;;;24.07;;
77248;SDS011;66280;45.124;20.718;2022-12-29T16:42:50;43.93;;;21.53;;
77248;SDS011;66280;45.124;20.718;2022-12-29T16:52:55;44.40;;;22.13;;
77248;SDS011;66280;45.124;20.718;2022-12-29T17:02:57;38.13;;;20.77;;
77248;SDS011;66280;45.124;20.718;2022-12-29T17:12:59;44.47;;;23.23;;
77248;SDS011;66280;45.124;20.718;2022-12-29T17:23:04;48.72;;;24.67;;
77248;SDS011;66280;45.124;20.718;2022-12-29T17:33:18;48.77;;;23.47;;
77248;SDS011;66280;45.124;20.718;2022-12-29T17:43:20;58.60;;;26.65;;
77248;SDS011;66280;45.124;20.718;2022-12-29T17:53:22;53.67;;;30.03;;
77248;SDS011;66280;45.124;20.718;2022-12-29T18:03:28;41.03;;;22.13;;
77248;SDS011;66280;45.124;20.718;2022-12-29T18:13:30;49.90;;;27.38;;
77248;SDS011;66280;45.124;20.718;2022-12-29T18:23:31;38.27;;;21.07;;
77248;SDS011;66280;45.124;20.718;2022-12-29T18:33:33;243.03;;;105.53;;
77248;SDS011;66280;45.124;20.718;2022-12-29T18:43:33;184.70;;;56.63;;
77248;SDS011;66280;45.124;20.718;2022-12-29T18:53:34;93.17;;;37.93;;
77248;SDS011;66280;45.124;20.718;2022-12-29T19:03:34;107.27;;;46.00;;
77248;SDS011;66280;45.124;20.718;2022-12-29T19:13:35;117.57;;;46.88;;
77248;SDS011;66280;45.124;20.718;2022-12-29T19:23:36;81.10;;;34.75;;
77248;SDS011;66280;45.124;20.718;2022-12-29T19:33:37;68.17;;;30.33;;
77248;SDS011;66280;45.124;20.718;2022-12-29T19:43:37;77.37;;;31.37;;
77248;SDS011;66280;45.124;20.718;2022-12-29T19:53:38;116.53;;;42.70;;
77248;SDS011;66280;45.124;20.718;2022-12-29T20:03:39;230.40;;;79.85;;
77248;SDS011;66280;45.124;20.718;2022-12-29T20:13:40;84.55;;;41.55;;
77248;SDS011;66280;45.124;20.718;2022-12-29T20:23:41;51.40;;;26.77;;
77248;SDS011;66280;45.124;20.718;2022-12-29T20:33:43;57.77;;;27.87;;
77248;SDS011;66280;45.124;20.718;2022-12-29T20:43:43;60.73;;;29.53;;
77248;SDS011;66280;45.124;20.718;2022-12-29T20:53:44;69.00;;;31.37;;
77248;SDS011;66280;45.124;20.718;2022-12-29T21:03:45;71.28;;;35.88;;
77248;SDS011;66280;45.124;20.718;2022-12-29T21:13:46;80.13;;;34.60;;
77248;SDS011;66280;45.124;20.718;2022-12-29T21:23:47;60.17;;;29.87;;
77248;SDS011;66280;45.124;20.718;2022-12-29T21:33:49;64.50;;;28.50;;
77248;SDS011;66280;45.124;20.718;2022-12-29T21:43:50;67.30;;;35.93;;
77248;SDS011;66280;45.124;20.718;2022-12-29T21:53:55;39.47;;;21.87;;
77248;SDS011;66280;45.124;20.718;2022-12-29T22:03:56;45.50;;;23.85;;
77248;SDS011;66280;45.124;20.718;2022-12-29T22:13:57;56.47;;;23.97;;
77248;SDS011;66280;45.124;20.718;2022-12-29T22:23:58;72.27;;;31.33;;
77248;SDS011;66280;45.124;20.718;2022-12-29T22:34:00;67.27;;;32.90;;
77248;SDS011;66280;45.124;20.718;2022-12-29T22:44:01;77.37;;;31.03;;
77248;SDS011;66280;45.124;20.718;2022-12-29T22:54:03;83.83;;;38.77;;
77248;SDS011;66280;45.124;20.718;2022-12-29T23:04:04;83.13;;;35.22;;
77248;SDS011;66280;45.124;20.718;2022-12-29T23:14:05;57.37;;;26.63;;
77248;SDS011;66280;45.124;20.718;2022-12-29T23:24:06;74.53;;;36.27;;
77248;SDS011;66280;45.124;20.718;2022-12-29T23:34:08;60.08;;;28.15;;
77248;SDS011;66280;45.124;20.718;2022-12-29T23:44:09;49.07;;;23.93;;
77248;SDS011;66280;45.124;20.718;2022-12-29T23:54:10;54.37;;;27.63;;
